Syracuse Hancock International Airport
KSYR : now visible

Airfield :











YOU CAN JOIN US ON...

 
LOGIN :

Register | Disclaimer

   EN    FR    IT 

 









Legend :    VFR   Marginal VFR   IFR   Intensive IFR   Very Intensive IFR
Visi :
Ceiling :
>= 8 km
>= 3000ft
5 to 8 km
1000 to 3000 ft
1500m to 5 km
500 to 1000 ft
800 to 1500m
200 to 500 ft
< 800m
< 200 ft
Symbols :   Thunderstorms  Fog  Heavy snow  Heavy precipitations  Wind > 20 kt






- Airport Elevation : 421 ft
- IATA code : SYR


KSYR - Syracuse Hancock International

CURRENT METAR :
  • 170254Z 24005KT 10SM FEW020 FEW075 SCT160 M01/M04 A3007 RMK AO2 SLP185 T10111044 53008 $

EXPIRED METARs :
  • 170154Z 23005KT 10SM FEW160 SCT250 00/M04 A3006 RMK AO2 SLP180 T00001039 $
  • 170054Z 21004KT 10SM FEW250 00/M03 A3005 RMK AO2 SLP176 T00001033 $

TAF KSYR
Valid from the 17 at 00:00 until the 18 at 00:00 UTC


162321Z 1700/1724 24008KT P6SM OVC035
FM170300 27005KT P6SM OVC025
FM170700 33004KT P6SM OVC035
FM171600 33005KT P6SM SCT040



MET'MAP, your aeronautical weather chart ! - Copyright ORBIFLY December 2007 - Disclaimer

ORBIFLY MET'MAP TEAM :

Programming & Development : Alexandra Zaïnal
Concept & original design : Baudouin d'Aumeries
Assistance for programming : Marc-Olivier Méhu
Technical & hardware support : Manuel Goepfert

Contact : metmap@orbifly.com




SOURCES & CREDITS :

   NOAA       Earth
Advisory